Time;durP1;ratioP1;P1;durP2;ratioP2;P2;SDS_P1;SDS_P2;PMS_P1;PMS_P2;Temp;Humidity;BMP_temperature;BMP_pressure;BME280_temperature;BME280_humidity;BME280_pressure;Samples;Min_cycle;Max_cycle;Signal;HPM_P1;HPM_P2
2022/08/07 00:01:14;;;;;;;0.50;0.50;;;14.10;99.90;;;;;;5062151;28;20176;-80
2022/08/07 00:03:39;;;;;;;0.40;0.40;;;14.40;1.00;;;;;;5063281;28;20202;-80
2022/08/07 00:06:05;;;;;;;0.40;0.40;;;14.30;1.00;;;;;;5062970;28;20278;-80
2022/08/07 00:08:31;;;;;;;0.50;0.50;;;14.20;99.90;;;;;;5063112;28;20179;-80
2022/08/07 00:10:56;;;;;;;0.40;0.40;;;14.30;1.00;;;;;;5063485;28;20629;-80
2022/08/07 00:13:23;;;;;;;0.40;0.40;;;14.30;1.00;;;;;;5062799;28;20218;-81
2022/08/07 00:15:49;;;;;;;0.40;0.40;;;14.10;1.00;;;;;;5056548;28;20648;-81
2022/08/07 00:18:21;;;;;;;0.40;0.40;;;14.20;1.00;;;;;;5055205;28;20199;-84
2022/08/07 00:20:48;;;;;;;0.40;0.40;;;14.10;99.90;;;;;;5039729;28;20183;-82
2022/08/07 00:23:14;;;;;;;0.43;0.43;;;14.10;18.00;;;;;;5055102;28;20203;-82
2022/08/07 00:25:39;;;;;;;0.40;0.40;;;14.10;1.00;;;;;;5055130;28;20557;-84
2022/08/07 00:28:05;;;;;;;0.30;0.30;;;14.00;1.00;;;;;;5054906;28;20225;-84
2022/08/07 00:30:30;;;;;;;0.50;0.50;;;14.20;99.90;;;;;;5054551;28;20198;-81
2022/08/07 00:32:57;;;;;;;0.40;0.40;;;14.30;99.90;;;;;;5055350;28;20266;-82
2022/08/07 00:35:23;;;;;;;0.37;0.37;;;14.20;10.90;;;;;;5055046;28;20548;-83
2022/08/07 00:37:48;;;;;;;0.50;0.50;;;14.40;1.00;;;;;;5054266;28;20209;-83
2022/08/07 00:40:14;;;;;;;0.50;0.50;;;14.30;99.90;;;;;;5054867;28;20179;-83
2022/08/07 00:42:40;;;;;;;0.50;0.50;;;14.20;1.00;;;;;;5055456;28;20195;-85
2022/08/07 00:45:07;;;;;;;0.30;0.30;;;14.00;1.00;;;;;;5055645;28;20264;-82
2022/08/07 00:47:33;;;;;;;0.50;0.50;;;14.00;1.00;;;;;;5052036;28;20214;-84
2022/08/07 00:50:00;;;;;;;0.50;0.50;;;14.00;99.90;;;;;;5054670;28;20186;-83
2022/08/07 00:52:26;;;;;;;0.50;0.50;;;13.90;1.00;;;;;;5056896;28;20653;-82
2022/08/07 00:54:51;;;;;;;0.50;0.50;;;13.90;99.90;;;;;;5056028;28;20206;-82
2022/08/07 00:57:17;;;;;;;0.40;0.40;;;14.00;99.90;;;;;;5055371;28;20179;-85
2022/08/07 00:59:43;;;;;;;0.30;0.30;;;14.00;1.00;;;;;;5055255;28;20175;-83
2022/08/07 01:02:10;;;;;;;0.40;0.40;;;13.80;99.90;;;;;;5055707;28;20206;-83
2022/08/07 01:04:37;;;;;;;0.40;0.40;;;13.80;99.90;;;;;;5055888;28;20167;-84
2022/08/07 01:07:03;;;;;;;0.40;0.40;;;13.80;99.90;;;;;;5056266;28;20221;-84
2022/08/07 01:09:30;;;;;;;0.40;0.40;;;13.70;99.90;;;;;;5054149;28;20671;-84
2022/08/07 01:11:56;;;;;;;0.37;0.37;;;13.70;1.00;;;;;;5055885;28;20549;-83
2022/08/07 01:14:22;;;;;;;0.43;0.43;;;13.60;1.00;;;;;;5055891;28;20175;-83
2022/08/07 01:16:49;;;;;;;0.50;0.50;;;13.60;1.00;;;;;;5056141;28;20183;-83
2022/08/07 01:19:16;;;;;;;0.40;0.40;;;13.50;1.00;;;;;;5066799;28;20179;-86
2022/08/07 01:21:42;;;;;;;0.53;0.53;;;13.40;1.00;;;;;;5075683;28;20204;-85
2022/08/07 01:24:08;;;;;;;0.40;0.40;;;13.20;99.90;;;;;;5070975;28;20202;-83
2022/08/07 01:26:34;;;;;;;0.50;0.50;;;13.30;1.00;;;;;;5054625;28;20580;-84
2022/08/07 01:29:00;;;;;;;0.50;0.50;;;13.30;99.90;;;;;;5056058;28;20654;-85
2022/08/07 01:31:30;;;;;;;0.50;0.50;;;13.20;1.00;;;;;;5076354;28;20179;-87
2022/08/07 01:34:00;;;;;;;0.40;0.40;;;13.00;1.00;;;;;;5075523;28;20195;-87
2022/08/07 01:36:27;;;;;;;0.50;0.50;;;13.10;1.00;;;;;;5076744;28;20234;-84
2022/08/07 01:38:53;;;;;;;0.40;0.40;;;13.20;99.90;;;;;;5075889;28;20171;-86
2022/08/07 01:41:20;;;;;;;0.43;0.43;;;13.10;1.00;;;;;;5066019;28;20198;-80
2022/08/07 01:43:46;;;;;;;0.53;0.53;;;13.30;1.00;;;;;;5076122;28;20191;-86
2022/08/07 01:46:14;;;;;;;0.40;0.40;;;13.30;99.90;;;;;;5076238;28;20206;-78
2022/08/07 01:48:41;;;;;;;0.60;0.60;;;13.50;99.90;;;;;;5074370;28;20198;-79
2022/08/07 01:51:09;;;;;;;0.50;0.50;;;13.40;99.90;;;;;;5077189;28;20167;-79
2022/08/07 01:53:38;;;;;;;0.40;0.40;;;13.40;1.00;;;;;;5079032;28;20201;-79
2022/08/07 01:56:11;;;;;;;0.40;0.40;;;13.40;1.00;;;;;;5074944;28;20194;-80
2022/08/07 01:58:42;;;;;;;0.60;0.60;;;13.40;1.00;;;;;;5074869;28;20179;-80
2022/08/07 02:01:12;;;;;;;0.40;0.40;;;13.30;32.20;;;;;;5077536;28;20182;-79
2022/08/07 02:03:42;;;;;;;0.40;0.40;;;13.40;99.90;;;;;;5078003;28;20195;-80
2022/08/07 02:06:12;;;;;;;0.50;0.50;;;13.20;1.00;;;;;;5077877;28;20223;-79
2022/08/07 02:08:41;;;;;;;0.50;0.50;;;13.10;1.00;;;;;;5080016;28;20227;-79
2022/08/07 02:11:08;;;;;;;0.50;0.50;;;13.20;99.90;;;;;;5079561;28;20183;-79
2022/08/07 02:13:36;;;;;;;0.50;0.50;;;13.30;99.90;;;;;;5080040;28;20187;-79
2022/08/07 02:16:04;;;;;;;0.60;0.60;;;13.00;1.00;;;;;;5078766;28;20233;-80
2022/08/07 02:18:33;;;;;;;0.67;0.67;;;12.70;1.00;;;;;;5077349;28;20179;-79
2022/08/07 02:21:02;;;;;;;0.53;0.53;;;12.80;1.00;;;;;;5080042;28;20210;-79
2022/08/07 02:23:29;;;;;;;0.60;0.60;;;12.70;1.00;;;;;;5080412;28;20171;-78
2022/08/07 02:25:57;;;;;;;0.60;0.60;;;12.80;1.00;;;;;;5080275;28;20203;-79
2022/08/07 02:28:25;;;;;;;0.40;0.40;;;12.80;1.00;;;;;;5079246;28;20183;-81
2022/08/07 02:30:52;;;;;;;0.50;0.50;;;12.70;99.90;;;;;;5071071;28;20175;-80
2022/08/07 02:33:19;;;;;;;0.50;0.50;;;12.70;99.90;;;;;;5070620;28;20244;-80
2022/08/07 02:35:47;;;;;;;0.40;0.40;;;12.80;1.00;;;;;;5070428;28;20186;-79
2022/08/07 02:38:14;;;;;;;0.50;0.50;;;12.70;1.00;;;;;;5070345;28;20251;-80
2022/08/07 02:40:40;;;;;;;0.50;0.50;;;12.50;99.90;;;;;;5069906;28;20180;-80
2022/08/07 02:43:07;;;;;;;0.40;0.40;;;12.50;99.90;;;;;;5070256;28;20681;-81
2022/08/07 02:45:35;;;;;;;0.40;0.40;;;12.60;1.00;;;;;;5070648;28;20262;-81
2022/08/07 02:48:01;;;;;;;0.50;0.50;;;12.60;1.00;;;;;;5071059;28;20238;-81
2022/08/07 02:50:28;;;;;;;0.50;0.50;;;12.70;1.00;;;;;;5070695;28;20187;-79
2022/08/07 02:52:58;;;;;;;0.60;0.60;;;12.60;1.00;;;;;;5071309;28;20242;-81
2022/08/07 02:55:25;;;;;;;0.50;0.50;;;12.60;1.00;;;;;;5071235;28;20168;-80
2022/08/07 02:57:54;;;;;;;0.60;0.60;;;12.70;1.00;;;;;;5071967;28;20171;-79
2022/08/07 03:00:22;;;;;;;0.60;0.60;;;12.70;1.00;;;;;;5071032;28;20167;-80
2022/08/07 03:02:51;;;;;;;0.50;0.50;;;12.70;60.00;;;;;;5072033;28;20191;-80
2022/08/07 03:05:18;;;;;;;0.40;0.40;;;12.50;60.80;;;;;;5072346;28;20179;-80
2022/08/07 03:07:43;;;;;;;0.40;0.40;;;12.40;99.90;;;;;;5072196;28;20230;-81
2022/08/07 03:10:10;;;;;;;0.53;0.53;;;12.40;99.90;;;;;;5077372;28;20190;-79
2022/08/07 03:12:36;;;;;;;0.60;0.60;;;12.50;1.00;;;;;;5078130;28;20266;-79
2022/08/07 03:15:04;;;;;;;0.57;0.57;;;12.50;99.80;;;;;;5071716;28;20666;-80
2022/08/07 03:17:31;;;;;;;0.60;0.60;;;12.50;1.00;;;;;;5066758;28;20238;-79
2022/08/07 03:19:57;;;;;;;0.60;0.60;;;12.50;1.00;;;;;;5066219;28;20190;-80
2022/08/07 03:22:23;;;;;;;0.60;0.60;;;12.90;99.90;;;;;;5066601;28;20564;-79
2022/08/07 03:24:49;;;;;;;0.50;0.50;;;13.20;99.90;;;;;;5065389;28;20185;-81
2022/08/07 03:27:15;;;;;;;0.50;0.50;;;12.90;99.90;;;;;;5065042;28;20245;-79
2022/08/07 03:29:50;;;;;;;0.50;0.50;;;12.70;1.00;;;;;;5062922;28;20792;-80
2022/08/07 03:32:19;;;;;;;0.50;0.50;;;12.60;1.00;;;;;;5065085;28;20611;-79
2022/08/07 03:34:49;;;;;;;0.70;0.70;;;13.10;1.00;;;;;;5065300;28;20176;-80
2022/08/07 03:37:18;;;;;;;0.50;0.50;;;12.70;99.90;;;;;;5064844;28;20163;-80
2022/08/07 03:39:46;;;;;;;0.57;0.57;;;12.60;1.00;;;;;;5063144;28;20239;-80
2022/08/07 03:42:13;;;;;;;0.50;0.50;;;12.70;1.00;;;;;;5063567;28;20179;-79
2022/08/07 03:44:39;;;;;;;0.50;0.50;;;12.70;1.00;;;;;;5065065;28;20183;-80
2022/08/07 03:47:06;;;;;;;0.63;0.63;;;12.90;1.00;;;;;;5064303;28;20214;-78
2022/08/07 03:49:33;;;;;;;0.50;0.50;;;12.70;69.30;;;;;;5063959;28;20183;-79
2022/08/07 03:51:59;;;;;;;0.40;0.40;;;12.60;1.00;;;;;;5063561;28;20541;-79
2022/08/07 03:54:25;;;;;;;0.50;0.50;;;12.50;99.90;;;;;;5062309;28;20175;-80
2022/08/07 03:56:53;;;;;;;0.40;0.40;;;12.40;1.00;;;;;;5062434;28;20171;-80
2022/08/07 03:59:18;;;;;;;0.50;0.50;;;12.40;1.00;;;;;;5062574;28;20179;-80
2022/08/07 04:01:45;;;;;;;0.60;0.60;;;12.40;1.00;;;;;;5062385;28;20194;-79
2022/08/07 04:04:11;;;;;;;0.40;0.40;;;12.50;99.90;;;;;;5061910;28;20222;-81
2022/08/07 04:06:39;;;;;;;0.60;0.60;;;12.40;1.00;;;;;;5062124;28;20242;-80
2022/08/07 04:09:05;;;;;;;0.60;0.60;;;12.40;1.00;;;;;;5061824;28;20186;-80
2022/08/07 04:11:33;;;;;;;0.40;0.40;;;12.10;1.00;;;;;;5060798;28;20176;-81
2022/08/07 04:14:00;;;;;;;0.50;0.50;;;12.00;1.00;;;;;;5061483;28;20187;-80
2022/08/07 04:16:26;;;;;;;0.50;0.50;;;12.10;1.00;;;;;;5062157;28;20640;-80
2022/08/07 04:18:52;;;;;;;0.50;0.50;;;12.20;1.00;;;;;;5060457;28;20167;-80
2022/08/07 04:21:18;;;;;;;0.60;0.60;;;12.30;1.00;;;;;;5060148;28;20214;-80
2022/08/07 04:23:44;;;;;;;0.50;0.50;;;12.40;1.00;;;;;;5060826;28;20195;-79
2022/08/07 04:26:10;;;;;;;0.60;0.60;;;12.40;1.00;;;;;;5060335;28;20751;-80
2022/08/07 04:28:35;;;;;;;0.50;0.50;;;12.30;1.00;;;;;;5060210;28;20264;-80
2022/08/07 04:31:01;;;;;;;0.50;0.50;;;12.40;1.00;;;;;;5059902;28;20262;-80
2022/08/07 04:33:28;;;;;;;0.50;0.50;;;12.50;1.00;;;;;;5059932;28;20219;-81
2022/08/07 04:35:54;;;;;;;0.53;0.53;;;12.50;1.00;;;;;;5059970;28;20700;-80
2022/08/07 04:38:20;;;;;;;0.43;0.43;;;12.50;1.00;;;;;;5059094;28;20183;-80
2022/08/07 04:40:46;;;;;;;0.50;0.50;;;12.60;1.00;;;;;;5059553;28;20179;-81
2022/08/07 04:43:15;;;;;;;0.60;0.60;;;12.70;1.00;;;;;;5059592;28;20218;-80
2022/08/07 04:46:01;;;;;;;0.50;0.50;;;12.80;1.00;;;;;;5058799;28;20178;-79
2022/08/07 04:48:53;;;;;;;0.47;0.47;;;13.00;1.00;;;;;;5058218;28;20201;-80
2022/08/07 04:51:40;;;;;;;0.50;0.50;;;13.00;1.00;;;;;;5058621;28;20172;-80
2022/08/07 04:54:33;;;;;;;0.40;0.40;;;12.80;1.00;;;;;;5059130;28;20416;-81
2022/08/07 04:57:28;;;;;;;0.50;0.50;;;12.70;1.00;;;;;;5058918;28;20218;-80
2022/08/07 05:00:01;;;;;;;0.50;0.50;;;12.80;1.00;;;;;;5031851;28;20179;-80
2022/08/07 05:02:50;;;;;;;0.50;0.50;;;13.00;1.00;;;;;;5058420;28;20198;-80
2022/08/07 05:05:25;;;;;;;0.40;0.40;;;13.40;1.00;;;;;;5058846;28;20185;-80
2022/08/07 05:08:32;;;;;;;0.43;0.43;;;13.20;1.00;;;;;;5058055;28;20218;-80
2022/08/07 05:11:04;;;;;;;0.40;0.40;;;13.70;99.90;;;;;;5056406;28;20217;-81
2022/08/07 05:13:37;;;;;;;0.40;0.40;;;13.50;48.40;;;;;;5071651;28;20213;-78
2022/08/07 05:16:07;;;;;;;0.40;0.40;;;13.70;55.10;;;;;;5076520;28;20191;-78
2022/08/07 05:18:42;;;;;;;0.47;0.47;;;14.30;1.00;;;;;;5076441;28;20173;-78
2022/08/07 05:21:10;;;;;;;0.30;0.30;;;14.40;99.90;;;;;;5075962;28;20167;-79
2022/08/07 05:23:46;;;;;;;0.40;0.40;;;14.40;1.00;;;;;;5075028;28;20251;-78
2022/08/07 05:26:20;;;;;;;0.40;0.40;;;14.30;1.00;;;;;;5076248;28;20205;-78
2022/08/07 05:28:50;;;;;;;0.40;0.40;;;14.30;1.00;;;;;;5076286;28;20171;-79
2022/08/07 05:31:18;;;;;;;0.40;0.40;;;14.70;99.90;;;;;;5076047;28;20163;-79
2022/08/07 05:33:45;;;;;;;0.47;0.47;;;14.80;99.90;;;;;;5075914;28;20211;-78
2022/08/07 05:36:12;;;;;;;0.40;0.40;;;14.40;1.00;;;;;;5075887;28;20171;-80
2022/08/07 05:38:40;;;;;;;0.50;0.50;;;14.40;1.00;;;;;;5071046;28;20201;-80
2022/08/07 05:41:07;;;;;;;0.47;0.47;;;14.60;1.00;;;;;;5071300;28;20171;-81
2022/08/07 05:43:33;;;;;;;0.40;0.40;;;15.00;1.00;;;;;;5067653;28;20203;-84
2022/08/07 05:46:01;;;;;;;0.50;0.50;;;15.10;1.00;;;;;;5054301;28;20202;-82
2022/08/07 05:48:28;;;;;;;0.40;0.40;;;15.60;1.00;;;;;;5053986;28;20185;-83
2022/08/07 05:50:55;;;;;;;0.40;0.40;;;16.00;99.90;;;;;;5052935;28;20182;-83
2022/08/07 05:53:20;;;;;;;0.40;0.40;;;16.20;1.00;;;;;;5053214;28;20191;-84
2022/08/07 05:55:46;;;;;;;0.40;0.40;;;16.40;1.00;;;;;;5053730;28;20495;-81
2022/08/07 05:58:14;;;;;;;0.50;0.50;;;16.70;99.90;;;;;;5054055;28;20175;-83
2022/08/07 06:00:40;;;;;;;0.30;0.30;;;17.20;1.00;;;;;;5053081;28;20180;-84
2022/08/07 06:03:08;;;;;;;0.40;0.40;;;17.40;1.00;;;;;;5053502;28;20250;-82
2022/08/07 06:05:34;;;;;;;0.50;0.50;;;17.20;1.00;;;;;;5016748;28;1029180;-82
2022/08/07 06:08:00;;;;;;;0.43;0.43;;;17.00;1.00;;;;;;5054086;28;20234;-84
2022/08/07 06:10:27;;;;;;;0.40;0.40;;;17.20;1.00;;;;;;5054135;28;20229;-83
2022/08/07 06:12:53;;;;;;;0.30;0.30;;;17.50;99.90;;;;;;5054260;28;20201;-83
2022/08/07 06:15:19;;;;;;;0.40;0.40;;;17.70;1.00;;;;;;5053810;28;20258;-84
2022/08/07 06:17:45;;;;;;;0.40;0.40;;;17.90;99.90;;;;;;5053311;28;20197;-83
2022/08/07 06:20:11;;;;;;;0.30;0.30;;;18.00;99.90;;;;;;5052878;28;20640;-83
2022/08/07 06:22:38;;;;;;;0.37;0.37;;;18.10;1.00;;;;;;5053760;28;20227;-82
2022/08/07 06:25:04;;;;;;;0.40;0.40;;;18.20;99.90;;;;;;5053608;28;20178;-82
2022/08/07 06:27:30;;;;;;;0.30;0.30;;;18.40;99.90;;;;;;5053454;28;20226;-83
2022/08/07 06:29:56;;;;;;;0.30;0.30;;;18.10;99.90;;;;;;5052418;28;20167;-83
2022/08/07 06:32:21;;;;;;;0.40;0.40;;;18.40;1.00;;;;;;5053353;28;20542;-82
2022/08/07 06:34:47;;;;;;;0.40;0.40;;;18.30;99.90;;;;;;5053853;28;20197;-82
2022/08/07 06:37:13;;;;;;;0.40;0.40;;;18.50;99.90;;;;;;5057010;28;20682;-85
2022/08/07 06:39:39;;;;;;;0.40;0.40;;;18.60;99.90;;;;;;5056515;28;20172;-85
2022/08/07 06:42:21;;;;;;;0.30;0.30;;;18.60;1.00;;;;;;5056734;28;20178;-82
2022/08/07 06:44:48;;;;;;;0.30;0.30;;;18.80;1.00;;;;;;5056249;28;20183;-82
2022/08/07 06:47:14;;;;;;;0.40;0.40;;;18.90;1.00;;;;;;5056373;28;20210;-82
2022/08/07 06:49:42;;;;;;;0.30;0.30;;;18.90;1.00;;;;;;5056358;28;20178;-83
2022/08/07 06:52:10;;;;;;;0.30;0.30;;;18.90;1.00;;;;;;5056381;28;20179;-84
2022/08/07 06:54:40;;;;;;;0.30;0.30;;;19.10;1.00;;;;;;5056636;28;20427;-82
2022/08/07 06:57:08;;;;;;;0.40;0.40;;;19.40;99.90;;;;;;5056852;28;20258;-80
2022/08/07 06:59:38;;;;;;;0.40;0.40;;;19.30;99.90;;;;;;5056408;28;20254;-81
2022/08/07 07:02:06;;;;;;;0.40;0.40;;;19.40;99.90;;;;;;5057225;28;20663;-83
2022/08/07 07:04:32;;;;;;;0.40;0.40;;;19.40;30.60;;;;;;5056434;28;20171;-83
2022/08/07 07:06:58;;;;;;;0.40;0.40;;;19.40;22.90;;;;;;5056226;28;20567;-81
2022/08/07 07:09:28;;;;;;;0.40;0.40;;;19.50;25.90;;;;;;5056700;28;20179;-82
2022/08/07 07:12:06;;;;;;;0.30;0.30;;;19.70;1.00;;;;;;5056480;28;20181;-83
2022/08/07 07:14:46;;;;;;;0.30;0.30;;;19.90;1.00;;;;;;5056898;28;20186;-83
2022/08/07 07:17:38;;;;;;;0.30;0.30;;;19.70;1.00;;;;;;5062854;28;20178;-83
2022/08/07 07:20:40;;;;;;;0.30;0.30;;;19.80;1.00;;;;;;5056831;28;20167;-84
2022/08/07 07:23:07;;;;;;;0.40;0.40;;;20.10;1.00;;;;;;5057543;28;20324;-84
2022/08/07 07:25:36;;;;;;;0.40;0.40;;;20.10;1.00;;;;;;5057267;28;20241;-81
2022/08/07 07:28:22;;;;;;;0.30;0.30;;;20.40;1.00;;;;;;5056584;28;20215;-81
2022/08/07 07:31:19;;;;;;;0.40;0.40;;;20.50;1.00;;;;;;5056340;28;20198;-78
2022/08/07 07:33:47;;;;;;;0.30;0.30;;;20.20;1.00;;;;;;5056739;28;20298;-82
2022/08/07 07:36:13;;;;;;;0.40;0.40;;;20.30;1.00;;;;;;5056626;28;20183;-81
2022/08/07 07:38:41;;;;;;;0.50;0.50;;;20.60;1.00;;;;;;5056081;28;20178;-82
2022/08/07 07:41:10;;;;;;;0.30;0.30;;;21.40;1.00;;;;;;5056611;28;20543;-83
2022/08/07 07:43:40;;;;;;;0.30;0.30;;;21.40;1.00;;;;;;5057157;28;20195;-82
2022/08/07 07:46:07;;;;;;;0.30;0.30;;;21.50;1.00;;;;;;5056241;28;20203;-83
2022/08/07 07:48:34;;;;;;;0.30;0.30;;;21.80;1.00;;;;;;5056444;28;20171;-82
2022/08/07 07:51:01;;;;;;;0.30;0.30;;;22.20;1.00;;;;;;5056242;28;20171;-83
2022/08/07 07:53:29;;;;;;;0.30;0.30;;;22.60;1.00;;;;;;5062026;28;20191;-80
2022/08/07 07:55:58;;;;;;;0.40;0.40;;;22.20;1.00;;;;;;5069238;28;20179;-82
2022/08/07 07:58:32;;;;;;;0.30;0.30;;;22.80;1.00;;;;;;5069668;28;20190;-83
2022/08/07 08:00:58;;;;;;;0.30;0.30;;;22.80;1.00;;;;;;5069338;28;20175;-83
2022/08/07 08:03:24;;;;;;;0.20;0.20;;;22.80;1.00;;;;;;5069666;28;20192;-83
2022/08/07 08:05:50;;;;;;;0.40;0.40;;;23.00;1.00;;;;;;5059521;28;20210;-82
2022/08/07 08:08:16;;;;;;;0.30;0.30;;;22.80;1.00;;;;;;5056258;28;20241;-82
2022/08/07 08:10:43;;;;;;;0.33;0.33;;;22.70;1.00;;;;;;5055828;28;20179;-84
2022/08/07 08:13:10;;;;;;;0.30;0.30;;;23.40;1.00;;;;;;5056884;28;20199;-82
2022/08/07 08:15:38;;;;;;;0.40;0.40;;;23.40;1.00;;;;;;5056993;28;20640;-82
2022/08/07 08:18:09;;;;;;;0.50;0.50;;;23.40;1.00;;;;;;5056934;28;20182;-82
2022/08/07 08:20:37;;;;;;;0.33;0.33;;;23.80;1.00;;;;;;5056538;28;20218;-83
2022/08/07 08:27:03;;;;;;;0.37;0.37;;;25.00;1.00;;;;;;5057153;28;20488;-81
2022/08/07 08:28:54;;;;;;;0.30;0.30;;;24.90;1.00;;;;;;5056490;28;20224;-86
2022/08/07 08:31:24;;;;;;;0.40;0.40;;;24.80;1.00;;;;;;5056252;28;20551;-83
2022/08/07 08:33:53;;;;;;;0.37;0.37;;;25.00;1.00;;;;;;5056721;28;20202;-84
2022/08/07 08:36:21;;;;;;;0.33;0.33;;;25.50;1.00;;;;;;5076477;28;20163;-87
2022/08/07 08:38:48;;;;;;;0.40;0.40;;;25.50;1.00;;;;;;5077828;28;20181;-90
2022/08/07 08:41:17;;;;;;;0.40;0.40;;;25.50;1.00;;;;;;5077501;28;20181;-87
2022/08/07 08:43:53;;;;;;;0.50;0.50;;;25.00;1.00;;;;;;5077970;28;20191;-85
2022/08/07 08:46:42;;;;;;;0.30;0.30;;;24.80;1.00;;;;;;5064123;28;20217;-81
2022/08/07 08:49:32;;;;;;;0.43;0.43;;;25.40;1.00;;;;;;5054868;28;20210;-83
2022/08/07 08:52:11;;;;;;;0.30;0.30;;;25.30;1.00;;;;;;5054674;28;20217;-82
2022/08/07 08:54:58;;;;;;;0.60;0.60;;;25.00;1.00;;;;;;5054965;28;20179;-85
2022/08/07 08:57:46;;;;;;;0.60;0.60;;;25.10;1.00;;;;;;5054811;28;20185;-82
2022/08/07 09:00:12;;;;;;;0.40;0.40;;;26.00;1.00;;;;;;5054363;28;20201;-81
2022/08/07 09:02:38;;;;;;;0.50;0.50;;;25.60;1.00;;;;;;5054735;28;20202;-81
2022/08/07 09:05:22;;;;;;;0.40;0.40;;;25.80;1.00;;;;;;5054886;28;20183;-82
2022/08/07 09:08:07;;;;;;;0.50;0.50;;;26.10;1.00;;;;;;5054261;28;20598;-81
2022/08/07 09:11:10;;;;;;;0.40;0.40;;;25.80;1.00;;;;;;5053669;28;20175;-83
2022/08/07 09:13:58;;;;;;;0.40;0.40;;;25.90;1.00;;;;;;5051563;28;20201;-82
2022/08/07 09:16:38;;;;;;;0.30;0.30;;;25.20;1.00;;;;;;5053995;28;20179;-81
2022/08/07 09:19:41;;;;;;;0.40;0.40;;;26.10;1.00;;;;;;5053637;28;20179;-80
2022/08/07 09:22:29;;;;;;;0.40;0.40;;;26.10;1.00;;;;;;5041840;28;20179;-81
2022/08/07 09:25:19;;;;;;;0.40;0.40;;;26.70;1.00;;;;;;5053825;28;20667;-81
2022/08/07 09:28:06;;;;;;;0.40;0.40;;;26.20;1.00;;;;;;5053395;28;20207;-81
2022/08/07 09:30:52;;;;;;;0.50;0.50;;;26.70;1.00;;;;;;5052989;28;20267;-82
2022/08/07 09:33:50;;;;;;;0.37;0.37;;;26.50;1.00;;;;;;5053063;28;20691;-83
2022/08/07 09:36:30;;;;;;;0.50;0.50;;;26.70;1.00;;;;;;5053452;28;20178;-79
2022/08/07 09:39:19;;;;;;;0.30;0.30;;;27.20;1.00;;;;;;5052927;28;20552;-82
2022/08/07 09:42:09;;;;;;;0.50;0.50;;;27.00;1.00;;;;;;5053234;28;20179;-81
2022/08/07 09:44:54;;;;;;;0.43;0.43;;;26.80;1.00;;;;;;5052976;28;20686;-80
2022/08/07 09:47:45;;;;;;;0.30;0.30;;;26.10;1.00;;;;;;5053083;28;20360;-81
2022/08/07 09:50:28;;;;;;;0.43;0.43;;;26.20;1.00;;;;;;5053048;28;20175;-84
2022/08/07 09:52:58;;;;;;;0.40;0.40;;;26.60;1.00;;;;;;5053893;28;20668;-83
2022/08/07 09:55:42;;;;;;;0.50;0.50;;;27.10;1.00;;;;;;5054220;28;20187;-80
2022/08/07 09:58:13;;;;;;;0.50;0.50;;;27.30;1.00;;;;;;5053008;28;20175;-81
2022/08/07 10:01:02;;;;;;;0.40;0.40;;;27.50;1.00;;;;;;5052299;28;20217;-82
2022/08/07 10:04:14;;;;;;;0.43;0.43;;;27.30;1.00;;;;;;5044546;28;20620;-83
2022/08/07 10:07:03;;;;;;;0.50;0.50;;;28.00;1.00;;;;;;5052664;28;20712;-82
2022/08/07 10:10:01;;;;;;;0.20;0.20;;;28.70;1.00;;;;;;5052166;28;20171;-81
2022/08/07 10:12:48;;;;;;;0.40;0.40;;;28.20;1.00;;;;;;5022605;28;20635;-81
2022/08/07 10:15:37;;;;;;;0.40;0.40;;;27.40;1.00;;;;;;5057128;28;20178;-81
2022/08/07 10:18:19;;;;;;;0.50;0.50;;;27.40;1.00;;;;;;5056746;28;20175;-83
2022/08/07 10:21:01;;;;;;;0.40;0.40;;;27.60;1.00;;;;;;5055231;28;20528;-82
2022/08/07 10:23:53;;;;;;;0.37;0.37;;;28.50;1.00;;;;;;5056733;28;20225;-79
2022/08/07 10:26:38;;;;;;;0.40;0.40;;;27.60;1.00;;;;;;5056677;28;20306;-79
2022/08/07 10:29:28;;;;;;;0.40;0.40;;;27.90;1.00;;;;;;5056339;28;20179;-80
2022/08/07 10:32:26;;;;;;;0.50;0.50;;;28.20;1.00;;;;;;5056510;28;20184;-82
2022/08/07 10:35:23;;;;;;;0.30;0.30;;;28.60;1.00;;;;;;5056352;28;20189;-80
2022/08/07 10:38:06;;;;;;;0.40;0.40;;;28.90;1.00;;;;;;5056375;28;20198;-80
2022/08/07 10:40:44;;;;;;;0.50;0.50;;;28.30;1.00;;;;;;5055835;28;20199;-79
2022/08/07 10:43:13;;;;;;;0.50;0.50;;;28.90;1.00;;;;;;5056040;28;20198;-80
2022/08/07 10:46:08;;;;;;;0.60;0.60;;;29.00;1.00;;;;;;5056439;28;20172;-83
2022/08/07 10:48:49;;;;;;;0.50;0.50;;;29.30;1.00;;;;;;5056418;28;20208;-80
2022/08/07 10:51:35;;;;;;;0.40;0.40;;;29.50;1.00;;;;;;5056416;28;20236;-81
2022/08/07 10:54:11;;;;;;;0.50;0.50;;;28.90;1.00;;;;;;5057066;28;20273;-80
2022/08/07 10:56:56;;;;;;;0.40;0.40;;;27.90;1.00;;;;;;5056342;28;20802;-80
2022/08/07 10:59:49;;;;;;;0.50;0.50;;;28.10;1.00;;;;;;5056063;28;20179;-80
2022/08/07 11:02:31;;;;;;;0.40;0.40;;;28.20;1.00;;;;;;5056452;28;20203;-80
2022/08/07 11:05:34;;;;;;;0.60;0.60;;;28.60;1.00;;;;;;5056374;28;20285;-81
2022/08/07 11:08:17;;;;;;;0.40;0.40;;;28.80;1.00;;;;;;5056943;28;20300;-81
2022/08/07 11:11:05;;;;;;;0.40;0.40;;;28.80;1.00;;;;;;5055860;28;20175;-80
2022/08/07 11:13:45;;;;;;;0.53;0.53;;;28.30;1.00;;;;;;5056426;28;20206;-79
2022/08/07 11:16:19;;;;;;;0.40;0.40;;;28.40;1.00;;;;;;5056450;28;20171;-80
2022/08/07 11:19:32;;;;;;;0.40;0.40;;;29.20;1.00;;;;;;5057100;28;20176;-80
2022/08/07 11:22:24;;;;;;;0.57;0.57;;;28.60;1.00;;;;;;5043388;28;20219;-81
2022/08/07 11:24:55;;;;;;;0.50;0.50;;;28.60;1.00;;;;;;5056341;28;20235;-82
2022/08/07 11:27:37;;;;;;;0.50;0.50;;;27.80;1.00;;;;;;5056621;28;20269;-79
2022/08/07 11:30:06;;;;;;;0.40;0.40;;;27.60;1.00;;;;;;5056229;28;20172;-80
2022/08/07 11:32:57;;;;;;;0.60;0.60;;;28.10;1.00;;;;;;5057238;28;20218;-82
2022/08/07 11:35:28;;;;;;;0.40;0.40;;;28.10;1.00;;;;;;5056859;28;20171;-84
2022/08/07 11:38:17;;;;;;;0.50;0.50;;;27.80;1.00;;;;;;5057107;28;20183;-82
2022/08/07 11:40:59;;;;;;;0.40;0.40;;;28.90;1.00;;;;;;5056317;28;20179;-83
2022/08/07 11:43:28;;;;;;;0.47;0.47;;;28.90;1.00;;;;;;5060580;28;20238;-79
2022/08/07 11:46:13;;;;;;;0.40;0.40;;;28.20;1.00;;;;;;5065159;28;20245;-79
2022/08/07 11:49:16;;;;;;;0.60;0.60;;;27.90;1.00;;;;;;5064010;28;20656;-82
2022/08/07 11:52:03;;;;;;;0.47;0.47;;;27.80;1.00;;;;;;5054661;28;20198;-82
2022/08/07 11:54:52;;;;;;;0.50;0.50;;;28.20;1.00;;;;;;5055034;28;20190;-80
2022/08/07 11:57:36;;;;;;;0.60;0.60;;;28.20;1.00;;;;;;5055017;28;20247;-81
2022/08/07 12:00:08;;;;;;;0.40;0.40;;;27.80;1.00;;;;;;5054112;28;20533;-78
2022/08/07 12:03:10;;;;;;;0.40;0.40;;;27.40;1.00;;;;;;5056346;28;20222;-82
2022/08/07 12:05:58;;;;;;;0.57;0.57;;;28.40;1.00;;;;;;5055908;28;20182;-82
2022/08/07 12:08:29;;;;;;;0.43;0.43;;;28.90;1.00;;;;;;5055699;28;20191;-82
2022/08/07 12:10:56;;;;;;;0.50;0.50;;;28.20;1.00;;;;;;5056133;28;20179;-81
2022/08/07 12:13:25;;;;;;;0.50;0.50;;;28.20;1.00;;;;;;5054848;28;20187;-82
2022/08/07 12:15:55;;;;;;;0.60;0.60;;;28.20;1.00;;;;;;5054492;28;20175;-79
2022/08/07 12:19:00;;;;;;;0.57;0.57;;;27.70;1.00;;;;;;5054749;28;20195;-82
2022/08/07 12:21:47;;;;;;;0.50;0.50;;;27.80;1.00;;;;;;5054799;28;20197;-78
2022/08/07 12:27:39;;;;;;;0.50;0.50;;;28.60;1.00;;;;;;5054478;28;20711;-81
2022/08/07 12:30:07;;;;;;;0.50;0.50;;;29.10;1.00;;;;;;5054307;28;20222;-81
2022/08/07 12:32:51;;;;;;;0.50;0.50;;;28.20;1.00;;;;;;5054247;28;20198;-79
2022/08/07 12:35:19;;;;;;;0.30;0.30;;;28.60;1.00;;;;;;5054621;28;20753;-80
2022/08/07 12:37:50;;;;;;;0.50;0.50;;;28.90;1.00;;;;;;5054337;28;20171;-79
2022/08/07 12:40:22;;;;;;;0.40;0.40;;;28.20;1.00;;;;;;5054388;28;20317;-81
2022/08/07 12:42:52;;;;;;;0.50;0.50;;;27.90;1.00;;;;;;5054660;28;20195;-79
2022/08/07 12:45:21;;;;;;;0.40;0.40;;;28.20;1.00;;;;;;5054508;28;20171;-82
2022/08/07 12:48:17;;;;;;;0.50;0.50;;;28.80;1.00;;;;;;5054453;28;20269;-83
2022/08/07 12:50:58;;;;;;;0.30;0.30;;;28.50;1.00;;;;;;5053049;28;20187;-79
2022/08/07 12:53:30;;;;;;;0.50;0.50;;;28.60;1.00;;;;;;5054080;28;20194;-81
2022/08/07 12:56:08;;;;;;;0.40;0.40;;;28.80;1.00;;;;;;5054523;28;20669;-79
2022/08/07 12:58:40;;;;;;;0.40;0.40;;;28.40;1.00;;;;;;5054895;28;20186;-82
2022/08/07 13:01:45;;;;;;;0.30;0.30;;;27.80;1.00;;;;;;5054391;28;20590;-84
2022/08/07 13:04:43;;;;;;;0.40;0.40;;;27.70;1.00;;;;;;5031811;28;20195;-81
2022/08/07 13:07:36;;;;;;;0.40;0.40;;;27.60;1.00;;;;;;5054941;28;20226;-82
2022/08/07 13:10:20;;;;;;;0.30;0.30;;;27.40;1.00;;;;;;5055301;28;20640;-80
2022/08/07 13:13:28;;;;;;;0.40;0.40;;;27.60;1.00;;;;;;5057311;28;20198;-78
2022/08/07 13:16:24;;;;;;;0.60;0.60;;;28.30;1.00;;;;;;5049426;28;20601;-80
2022/08/07 13:19:46;;;;;;;0.40;0.40;;;28.20;1.00;;;;;;5056787;28;20171;-78
2022/08/07 13:22:26;;;;;;;0.30;0.30;;;28.80;1.00;;;;;;4995802;28;20199;-79
2022/08/07 13:25:00;;;;;;;0.30;0.30;;;28.80;1.00;;;;;;4995376;28;20189;-79
2022/08/07 13:27:41;;;;;;;0.50;0.50;;;28.60;1.00;;;;;;5041034;28;20217;-80
2022/08/07 13:30:14;;;;;;;0.40;0.40;;;28.80;1.00;;;;;;5061263;28;20174;-79
2022/08/07 13:33:08;;;;;;;0.40;0.40;;;27.50;1.00;;;;;;5062115;28;20289;-77
2022/08/07 13:35:40;;;;;;;0.50;0.50;;;27.20;1.00;;;;;;5062569;28;20640;-77
2022/08/07 13:38:27;;;;;;;0.30;0.30;;;27.50;1.00;;;;;;5059447;28;20251;-77